Hannover, Germany

2:08 PM CEST on September 29, 2016 (GMT +0200)
Walsroder Straße | | Change Station

Elev 167 ft 52.46 °N, 9.74 °E | Updated 1 minute ago

Mostly Cloudy
Mostly Cloudy
74.1 °F
Feels Like 77 °F
N
1.2
Wind Variable Wind from NE
Gusts 5.0 mph

Today
High -- | Low -- °F
--% Chance of Precip.
Yesterday
High -- | Low -- °F
Precip. -- in
Pressure 29.89 in
Visibility 6.2 miles
Clouds Few 4800 ft
Scattered Clouds 14000 ft
Mostly Cloudy 25000 ft
Heat Index 77 °F
Dew Point 55 °F
Humidity 51%
Rainfall 0.00 in
Snow Depth Not available.
7:19 AM 7:02 PM
Waning Crescent, 2% visible
METAR EDDV 291150Z 23014KT 200V280 9999 FEW048 SCT140 BKN250 23/10 Q1012 TEMPO 23020G30KT
Pressure 29.89 in
Visibility 6.2 miles
Clouds Few 4800 ft
Scattered Clouds 14000 ft
Mostly Cloudy 25000 ft
Heat Index 77 °F
Dew Point 55 °F
Humidity 51%
Rainfall 0.00 in
Snow Depth Not available.
7:19 AM 7:02 PM
Waning Crescent, 2% visible
METAR EDDV 291150Z 23014KT 200V280 9999 FEW048 SCT140 BKN250 23/10 Q1012 TEMPO 23020G30KT

10-Day Weather Forecast

×

Almanac

Astronomy

Sep. 29, 2016 Rise Set
Actual Time
Civil Twilight
Nautical Twilight
Astronomical Twilight
Moon
Length of Visible Light
Length of Day
Tomorrow will be .
, % of the Moon is Illuminated

Today's Extremes

Country Highs Country Lows

Community

WunderPhotos

Upload Photos

1,942,466 photos uploaded!

WunderBlog® & News

Nearby

Air Quality

  Air Quality AQ Index Pollutant
Not available.

Snow Depth

Station Depth Elevation

Earthquake Activity

City Distance Mag. Time & Date
Minimum magnitude displayed is 2.5.

Coastal Water Temperatures

Place Temperature

Stations

Nearby Weather Stations

Station Location Temp. Windchill Dew Point Humidity Wind Precip. Elev Updated Type